sensor_id;sensor_type;location;lat;lon;timestamp;temperature;humidity
12233;DHT22;6179;51.748;8.728;2023-07-09T00:02:49;22.30;78.50
12233;DHT22;6179;51.748;8.728;2023-07-09T00:08:50;22.00;80.20
12233;DHT22;6179;51.748;8.728;2023-07-09T00:14:51;22.00;78.80
12233;DHT22;6179;51.748;8.728;2023-07-09T00:20:52;22.10;78.10
12233;DHT22;6179;51.748;8.728;2023-07-09T00:26:53;21.60;80.20
12233;DHT22;6179;51.748;8.728;2023-07-09T00:32:54;21.20;81.20
12233;DHT22;6179;51.748;8.728;2023-07-09T00:38:55;21.30;80.60
12233;DHT22;6179;51.748;8.728;2023-07-09T00:44:59;21.20;81.20
12233;DHT22;6179;51.748;8.728;2023-07-09T00:51:00;21.20;80.90
12233;DHT22;6179;51.748;8.728;2023-07-09T00:57:13;21.10;81.50
12233;DHT22;6179;51.748;8.728;2023-07-09T01:03:51;21.00;81.50
12233;DHT22;6179;51.748;8.728;2023-07-09T01:09:54;20.70;82.70
12233;DHT22;6179;51.748;8.728;2023-07-09T01:15:55;20.70;82.20
12233;DHT22;6179;51.748;8.728;2023-07-09T01:22:00;20.70;82.80
12233;DHT22;6179;51.748;8.728;2023-07-09T01:28:02;20.60;83.00
12233;DHT22;6179;51.748;8.728;2023-07-09T01:34:02;20.50;84.00
12233;DHT22;6179;51.748;8.728;2023-07-09T01:40:05;20.60;83.90
12233;DHT22;6179;51.748;8.728;2023-07-09T01:46:11;20.70;84.10
12233;DHT22;6179;51.748;8.728;2023-07-09T01:52:14;20.50;84.50
12233;DHT22;6179;51.748;8.728;2023-07-09T01:58:17;20.50;85.00
12233;DHT22;6179;51.748;8.728;2023-07-09T02:04:18;20.30;86.70
12233;DHT22;6179;51.748;8.728;2023-07-09T02:10:19;19.90;87.30
12233;DHT22;6179;51.748;8.728;2023-07-09T02:16:20;19.70;87.90
12233;DHT22;6179;51.748;8.728;2023-07-09T02:22:20;20.00;85.60
12233;DHT22;6179;51.748;8.728;2023-07-09T02:28:21;19.90;86.70
12233;DHT22;6179;51.748;8.728;2023-07-09T02:34:22;19.70;88.10
12233;DHT22;6179;51.748;8.728;2023-07-09T02:40:26;19.30;89.80
12233;DHT22;6179;51.748;8.728;2023-07-09T02:46:26;19.20;90.10
12233;DHT22;6179;51.748;8.728;2023-07-09T02:52:27;19.20;89.90
12233;DHT22;6179;51.748;8.728;2023-07-09T02:58:28;19.40;89.60
12233;DHT22;6179;51.748;8.728;2023-07-09T03:04:29;19.70;88.50
12233;DHT22;6179;51.748;8.728;2023-07-09T03:10:31;19.40;89.70
12233;DHT22;6179;51.748;8.728;2023-07-09T03:16:33;19.30;89.40
12233;DHT22;6179;51.748;8.728;2023-07-09T03:22:34;19.40;89.00
12233;DHT22;6179;51.748;8.728;2023-07-09T03:28:38;19.10;90.50
12233;DHT22;6179;51.748;8.728;2023-07-09T03:34:39;19.00;90.50
12233;DHT22;6179;51.748;8.728;2023-07-09T03:40:40;19.40;89.50
12233;DHT22;6179;51.748;8.728;2023-07-09T03:46:40;19.30;90.10
12233;DHT22;6179;51.748;8.728;2023-07-09T03:52:42;19.40;90.50
12233;DHT22;6179;51.748;8.728;2023-07-09T03:58:42;19.30;92.10
12233;DHT22;6179;51.748;8.728;2023-07-09T04:04:43;19.30;91.80
12233;DHT22;6179;51.748;8.728;2023-07-09T04:10:44;19.50;91.40
12233;DHT22;6179;51.748;8.728;2023-07-09T04:16:45;19.50;91.20
12233;DHT22;6179;51.748;8.728;2023-07-09T04:22:45;19.90;89.90
12233;DHT22;6179;51.748;8.728;2023-07-09T04:28:47;19.80;91.20
12233;DHT22;6179;51.748;8.728;2023-07-09T04:34:48;19.80;91.40
12233;DHT22;6179;51.748;8.728;2023-07-09T04:40:49;19.90;91.30
12233;DHT22;6179;51.748;8.728;2023-07-09T04:46:50;20.50;89.30
12233;DHT22;6179;51.748;8.728;2023-07-09T04:52:51;20.80;88.60
12233;DHT22;6179;51.748;8.728;2023-07-09T04:58:52;20.60;89.90
12233;DHT22;6179;51.748;8.728;2023-07-09T05:04:53;20.70;89.80
12233;DHT22;6179;51.748;8.728;2023-07-09T05:10:55;20.80;89.90
12233;DHT22;6179;51.748;8.728;2023-07-09T05:16:57;21.30;88.30
12233;DHT22;6179;51.748;8.728;2023-07-09T05:22:57;21.70;86.40
12233;DHT22;6179;51.748;8.728;2023-07-09T05:28:58;22.00;85.50
12233;DHT22;6179;51.748;8.728;2023-07-09T05:34:59;22.30;84.70
12233;DHT22;6179;51.748;8.728;2023-07-09T05:41:01;22.50;84.40
12233;DHT22;6179;51.748;8.728;2023-07-09T05:47:03;22.80;83.90
12233;DHT22;6179;51.748;8.728;2023-07-09T05:53:04;23.20;82.20
12233;DHT22;6179;51.748;8.728;2023-07-09T05:59:05;23.70;82.60
12233;DHT22;6179;51.748;8.728;2023-07-09T06:05:06;24.30;80.30
12233;DHT22;6179;51.748;8.728;2023-07-09T06:11:11;24.80;79.50
12233;DHT22;6179;51.748;8.728;2023-07-09T06:17:12;25.20;79.60
12233;DHT22;6179;51.748;8.728;2023-07-09T06:23:13;25.30;79.60
12233;DHT22;6179;51.748;8.728;2023-07-09T06:29:13;25.80;78.80
12233;DHT22;6179;51.748;8.728;2023-07-09T06:35:14;26.50;76.50
12233;DHT22;6179;51.748;8.728;2023-07-09T06:41:15;26.90;77.50
12233;DHT22;6179;51.748;8.728;2023-07-09T06:47:17;27.00;74.60
12233;DHT22;6179;51.748;8.728;2023-07-09T06:53:17;27.50;74.40
12233;DHT22;6179;51.748;8.728;2023-07-09T06:59:18;27.80;71.60
12233;DHT22;6179;51.748;8.728;2023-07-09T07:05:19;28.10;71.90
12233;DHT22;6179;51.748;8.728;2023-07-09T07:11:20;28.40;70.80
12233;DHT22;6179;51.748;8.728;2023-07-09T07:17:22;28.50;71.60
12233;DHT22;6179;51.748;8.728;2023-07-09T07:23:23;28.90;71.30
12233;DHT22;6179;51.748;8.728;2023-07-09T07:29:24;29.40;70.10
12233;DHT22;6179;51.748;8.728;2023-07-09T07:35:25;29.70;68.70
12233;DHT22;6179;51.748;8.728;2023-07-09T07:41:26;29.40;69.90
12233;DHT22;6179;51.748;8.728;2023-07-09T07:47:26;29.50;69.00
12233;DHT22;6179;51.748;8.728;2023-07-09T07:53:28;29.40;67.70
12233;DHT22;6179;51.748;8.728;2023-07-09T07:59:30;29.10;68.90
12233;DHT22;6179;51.748;8.728;2023-07-09T08:05:35;29.20;68.30
12233;DHT22;6179;51.748;8.728;2023-07-09T08:11:35;29.60;72.40
12233;DHT22;6179;51.748;8.728;2023-07-09T08:17:36;30.30;71.40
12233;DHT22;6179;51.748;8.728;2023-07-09T08:23:39;30.70;65.30
12233;DHT22;6179;51.748;8.728;2023-07-09T08:29:40;30.50;65.60
12233;DHT22;6179;51.748;8.728;2023-07-09T08:35:43;30.80;64.20
12233;DHT22;6179;51.748;8.728;2023-07-09T08:41:52;30.40;61.80
12233;DHT22;6179;51.748;8.728;2023-07-09T08:48:08;30.40;63.70
12233;DHT22;6179;51.748;8.728;2023-07-09T08:54:31;30.70;65.20
12233;DHT22;6179;51.748;8.728;2023-07-09T09:00:49;30.80;64.60
12233;DHT22;6179;51.748;8.728;2023-07-09T09:13:20;31.00;61.20
12233;DHT22;6179;51.748;8.728;2023-07-09T09:19:52;31.40;65.20
12233;DHT22;6179;51.748;8.728;2023-07-09T09:25:56;31.70;61.60
12233;DHT22;6179;51.748;8.728;2023-07-09T09:32:11;32.00;64.00
12233;DHT22;6179;51.748;8.728;2023-07-09T09:38:26;31.80;63.20
12233;DHT22;6179;51.748;8.728;2023-07-09T09:44:28;31.90;62.60
12233;DHT22;6179;51.748;8.728;2023-07-09T09:50:32;32.10;63.70
12233;DHT22;6179;51.748;8.728;2023-07-09T09:56:37;32.00;64.20
12233;DHT22;6179;51.748;8.728;2023-07-09T10:02:40;32.40;63.90
12233;DHT22;6179;51.748;8.728;2023-07-09T10:08:59;32.60;59.60
12233;DHT22;6179;51.748;8.728;2023-07-09T10:41:31;33.30;57.60
12233;DHT22;6179;51.748;8.728;2023-07-09T10:47:38;33.10;61.30
12233;DHT22;6179;51.748;8.728;2023-07-09T10:53:57;33.60;58.40
12233;DHT22;6179;51.748;8.728;2023-07-09T11:00:03;34.10;59.00
12233;DHT22;6179;51.748;8.728;2023-07-09T11:06:16;34.00;55.60
12233;DHT22;6179;51.748;8.728;2023-07-09T11:12:29;33.80;56.80
12233;DHT22;6179;51.748;8.728;2023-07-09T11:18:35;34.00;57.20
12233;DHT22;6179;51.748;8.728;2023-07-09T11:31:46;33.80;53.60
12233;DHT22;6179;51.748;8.728;2023-07-09T11:37:47;33.50;54.80
12233;DHT22;6179;51.748;8.728;2023-07-09T11:43:48;34.00;55.30
12233;DHT22;6179;51.748;8.728;2023-07-09T11:50:02;34.30;53.10
12233;DHT22;6179;51.748;8.728;2023-07-09T11:56:08;34.50;55.90
12233;DHT22;6179;51.748;8.728;2023-07-09T12:02:33;34.70;54.20
12233;DHT22;6179;51.748;8.728;2023-07-09T12:08:38;34.70;52.90
12233;DHT22;6179;51.748;8.728;2023-07-09T12:14:41;34.90;54.10
12233;DHT22;6179;51.748;8.728;2023-07-09T12:20:47;34.90;51.80
12233;DHT22;6179;51.748;8.728;2023-07-09T12:26:55;35.10;53.20
12233;DHT22;6179;51.748;8.728;2023-07-09T12:33:07;34.40;52.80
12233;DHT22;6179;51.748;8.728;2023-07-09T12:39:10;34.30;56.50
12233;DHT22;6179;51.748;8.728;2023-07-09T12:45:20;35.20;50.80
12233;DHT22;6179;51.748;8.728;2023-07-09T12:51:29;35.40;53.30
12233;DHT22;6179;51.748;8.728;2023-07-09T12:57:30;35.10;50.40
12233;DHT22;6179;51.748;8.728;2023-07-09T13:03:34;34.90;51.30
12233;DHT22;6179;51.748;8.728;2023-07-09T13:09:35;35.40;51.00
12233;DHT22;6179;51.748;8.728;2023-07-09T13:21:38;35.00;54.40
12233;DHT22;6179;51.748;8.728;2023-07-09T13:27:40;35.00;57.40
12233;DHT22;6179;51.748;8.728;2023-07-09T13:33:42;35.10;55.20
12233;DHT22;6179;51.748;8.728;2023-07-09T13:39:44;34.90;54.10
12233;DHT22;6179;51.748;8.728;2023-07-09T13:45:46;35.30;52.70
12233;DHT22;6179;51.748;8.728;2023-07-09T13:51:50;35.60;54.30
12233;DHT22;6179;51.748;8.728;2023-07-09T13:57:52;35.60;50.90
12233;DHT22;6179;51.748;8.728;2023-07-09T14:03:56;35.60;53.70
12233;DHT22;6179;51.748;8.728;2023-07-09T14:10:02;35.80;52.00
12233;DHT22;6179;51.748;8.728;2023-07-09T14:16:05;35.70;51.30
12233;DHT22;6179;51.748;8.728;2023-07-09T14:22:36;35.90;52.00
12233;DHT22;6179;51.748;8.728;2023-07-09T14:28:37;35.70;54.70
12233;DHT22;6179;51.748;8.728;2023-07-09T14:34:41;35.50;52.80
12233;DHT22;6179;51.748;8.728;2023-07-09T14:40:42;35.50;54.70
12233;DHT22;6179;51.748;8.728;2023-07-09T14:46:45;35.30;57.10
12233;DHT22;6179;51.748;8.728;2023-07-09T14:52:47;35.60;54.50
12233;DHT22;6179;51.748;8.728;2023-07-09T14:58:48;35.30;54.60
12233;DHT22;6179;51.748;8.728;2023-07-09T15:04:49;34.90;54.80
12233;DHT22;6179;51.748;8.728;2023-07-09T15:10:51;34.60;56.90
12233;DHT22;6179;51.748;8.728;2023-07-09T15:16:54;34.30;56.50
12233;DHT22;6179;51.748;8.728;2023-07-09T15:22:57;34.40;56.90
12233;DHT22;6179;51.748;8.728;2023-07-09T15:28:59;34.20;56.50
12233;DHT22;6179;51.748;8.728;2023-07-09T15:35:00;34.10;58.40
12233;DHT22;6179;51.748;8.728;2023-07-09T15:41:00;34.20;59.70
12233;DHT22;6179;51.748;8.728;2023-07-09T15:47:02;33.90;59.70
12233;DHT22;6179;51.748;8.728;2023-07-09T15:53:07;33.90;60.80
12233;DHT22;6179;51.748;8.728;2023-07-09T15:59:25;34.00;60.80
12233;DHT22;6179;51.748;8.728;2023-07-09T16:05:30;33.40;61.90
12233;DHT22;6179;51.748;8.728;2023-07-09T16:11:31;33.50;60.90
12233;DHT22;6179;51.748;8.728;2023-07-09T16:17:32;33.20;61.70
12233;DHT22;6179;51.748;8.728;2023-07-09T16:23:33;32.90;62.60
12233;DHT22;6179;51.748;8.728;2023-07-09T16:29:34;32.40;64.40
12233;DHT22;6179;51.748;8.728;2023-07-09T16:35:35;32.30;62.40
12233;DHT22;6179;51.748;8.728;2023-07-09T16:41:36;32.20;61.90
12233;DHT22;6179;51.748;8.728;2023-07-09T16:47:36;32.10;62.40
12233;DHT22;6179;51.748;8.728;2023-07-09T16:53:37;32.00;64.70
12233;DHT22;6179;51.748;8.728;2023-07-09T16:59:38;31.60;64.30
12233;DHT22;6179;51.748;8.728;2023-07-09T17:05:39;30.40;66.80
12233;DHT22;6179;51.748;8.728;2023-07-09T17:11:40;27.80;80.80
12233;DHT22;6179;51.748;8.728;2023-07-09T17:17:40;25.80;88.90
12233;DHT22;6179;51.748;8.728;2023-07-09T17:23:41;24.00;96.80
12233;DHT22;6179;51.748;8.728;2023-07-09T17:29:42;23.50;98.30
12233;DHT22;6179;51.748;8.728;2023-07-09T17:35:46;23.20;97.70
12233;DHT22;6179;51.748;8.728;2023-07-09T17:41:50;22.40;98.30
12233;DHT22;6179;51.748;8.728;2023-07-09T17:47:52;22.40;98.30
12233;DHT22;6179;51.748;8.728;2023-07-09T17:53:59;22.60;98.30
12233;DHT22;6179;51.748;8.728;2023-07-09T18:00:00;22.50;98.30
12233;DHT22;6179;51.748;8.728;2023-07-09T18:06:01;22.00;98.30
12233;DHT22;6179;51.748;8.728;2023-07-09T18:12:02;21.80;98.30
12233;DHT22;6179;51.748;8.728;2023-07-09T18:18:04;21.80;98.30
12233;DHT22;6179;51.748;8.728;2023-07-09T18:24:06;21.60;98.30
12233;DHT22;6179;51.748;8.728;2023-07-09T18:30:14;21.60;98.30
12233;DHT22;6179;51.748;8.728;2023-07-09T18:36:17;21.80;98.30
12233;DHT22;6179;51.748;8.728;2023-07-09T18:42:20;21.80;98.30
12233;DHT22;6179;51.748;8.728;2023-07-09T18:48:22;21.40;98.30
12233;DHT22;6179;51.748;8.728;2023-07-09T18:54:24;21.10;98.30
12233;DHT22;6179;51.748;8.728;2023-07-09T19:00:25;21.10;98.30
12233;DHT22;6179;51.748;8.728;2023-07-09T19:06:26;21.00;98.30
12233;DHT22;6179;51.748;8.728;2023-07-09T19:12:26;21.10;98.30
12233;DHT22;6179;51.748;8.728;2023-07-09T19:18:29;21.30;98.30
12233;DHT22;6179;51.748;8.728;2023-07-09T19:24:35;21.20;98.30
12233;DHT22;6179;51.748;8.728;2023-07-09T19:30:36;21.10;98.30
12233;DHT22;6179;51.748;8.728;2023-07-09T19:36:37;20.80;98.30
12233;DHT22;6179;51.748;8.728;2023-07-09T19:42:38;21.00;98.30
12233;DHT22;6179;51.748;8.728;2023-07-09T19:48:39;21.00;98.30
12233;DHT22;6179;51.748;8.728;2023-07-09T19:54:43;20.90;98.30
12233;DHT22;6179;51.748;8.728;2023-07-09T20:00:45;20.90;98.30
12233;DHT22;6179;51.748;8.728;2023-07-09T20:06:46;21.40;98.30
12233;DHT22;6179;51.748;8.728;2023-07-09T20:12:51;21.80;98.30
12233;DHT22;6179;51.748;8.728;2023-07-09T20:18:55;21.80;98.30
12233;DHT22;6179;51.748;8.728;2023-07-09T20:24:56;21.60;98.30
12233;DHT22;6179;51.748;8.728;2023-07-09T20:30:57;21.50;98.30
12233;DHT22;6179;51.748;8.728;2023-07-09T20:36:58;21.50;98.30
12233;DHT22;6179;51.748;8.728;2023-07-09T20:42:59;21.40;98.30
12233;DHT22;6179;51.748;8.728;2023-07-09T20:48:59;21.40;98.30
12233;DHT22;6179;51.748;8.728;2023-07-09T20:55:00;21.50;98.30
12233;DHT22;6179;51.748;8.728;2023-07-09T21:01:01;21.20;98.30
12233;DHT22;6179;51.748;8.728;2023-07-09T21:07:02;21.10;98.30
12233;DHT22;6179;51.748;8.728;2023-07-09T21:13:02;21.30;98.30
12233;DHT22;6179;51.748;8.728;2023-07-09T21:19:29;21.20;98.30
12233;DHT22;6179;51.748;8.728;2023-07-09T21:25:32;21.40;98.30
12233;DHT22;6179;51.748;8.728;2023-07-09T21:31:33;21.30;98.30
12233;DHT22;6179;51.748;8.728;2023-07-09T21:37:34;21.20;98.30
12233;DHT22;6179;51.748;8.728;2023-07-09T21:43:34;21.10;98.30
12233;DHT22;6179;51.748;8.728;2023-07-09T21:49:37;21.20;98.30
12233;DHT22;6179;51.748;8.728;2023-07-09T21:55:39;21.10;98.30
12233;DHT22;6179;51.748;8.728;2023-07-09T22:01:41;21.00;98.30
12233;DHT22;6179;51.748;8.728;2023-07-09T22:07:43;21.00;98.30
12233;DHT22;6179;51.748;8.728;2023-07-09T22:13:46;20.90;98.30
12233;DHT22;6179;51.748;8.728;2023-07-09T22:19:47;21.20;98.30
12233;DHT22;6179;51.748;8.728;2023-07-09T22:25:49;21.20;98.30
12233;DHT22;6179;51.748;8.728;2023-07-09T22:31:50;21.10;98.30
12233;DHT22;6179;51.748;8.728;2023-07-09T22:37:52;21.20;98.30
12233;DHT22;6179;51.748;8.728;2023-07-09T22:43:53;21.10;98.30
12233;DHT22;6179;51.748;8.728;2023-07-09T22:49:54;21.10;98.30
12233;DHT22;6179;51.748;8.728;2023-07-09T22:55:57;20.90;98.30
12233;DHT22;6179;51.748;8.728;2023-07-09T23:01:58;21.00;98.30
12233;DHT22;6179;51.748;8.728;2023-07-09T23:07:59;20.80;98.30
12233;DHT22;6179;51.748;8.728;2023-07-09T23:14:00;20.80;98.30
12233;DHT22;6179;51.748;8.728;2023-07-09T23:20:02;20.70;98.30
12233;DHT22;6179;51.748;8.728;2023-07-09T23:26:10;20.80;98.30
12233;DHT22;6179;51.748;8.728;2023-07-09T23:32:14;20.70;98.30
12233;DHT22;6179;51.748;8.728;2023-07-09T23:38:19;20.80;98.30
12233;DHT22;6179;51.748;8.728;2023-07-09T23:44:23;20.70;98.30
12233;DHT22;6179;51.748;8.728;2023-07-09T23:50:25;20.70;98.30
12233;DHT22;6179;51.748;8.728;2023-07-09T23:56:33;20.70;98.30
